ARG2742 RKSI-ZBAD
Flight info
| Callsign | ARG2742 |
|---|---|
| Flight time | 0h 24m |
| Altitude | 28000 |
| Route | NOPIK2Y NOPIK Y697 AGAVO/K0761S0660 A591 IKEKA W4 HCH W200 DOVIV W55 DUMAP DUMAP5L |
| Aircraft | B738/M-SDE2E3FGHIRWXY/LB1 |
Departure
| Time | 2026-05-04 02:31 |
|---|---|
| Airport | Incheon International Airport (RKSI) |
Arrival
| Time | 2026-05-04 02:56 |
|---|---|
| Airport | Beijing Daxing International Airport (ZBAD) |
| Time | Latitude | Longitude | Altitude | Speed | Heading |
|---|---|---|---|---|---|
| 2026-05-04 02:16 | 37.45021 | 126.44644 | 31 ft | 0 kts | 53° |
| 2026-05-04 02:23 | 37.45014 | 126.44633 | 31 ft | 2 kts | 51° |
| 2026-05-04 02:23 | 37.45001 | 126.44617 | 31 ft | 3 kts | 32° |
| 2026-05-04 02:24 | 37.44982 | 126.44607 | 31 ft | 3 kts | 12° |
| 2026-05-04 02:24 | 37.44962 | 126.44606 | 31 ft | 3 kts | 353° |
| 2026-05-04 02:24 | 37.44942 | 126.44613 | 31 ft | 3 kts | 336° |
| 2026-05-04 02:24 | 37.44927 | 126.44624 | 31 ft | 0 kts | 324° |
| 2026-05-04 02:25 | 37.44951 | 126.44588 | 31 ft | 10 kts | 272° |
| 2026-05-04 02:26 | 37.44888 | 126.44535 | 31 ft | 9 kts | 164° |
| 2026-05-04 02:26 | 37.44792 | 126.44621 | 31 ft | 20 kts | 144° |
| 2026-05-04 02:26 | 37.44696 | 126.44702 | 31 ft | 15 kts | 141° |
| 2026-05-04 02:26 | 37.44606 | 126.44793 | 31 ft | 7 kts | 162° |
| 2026-05-04 02:27 | 37.44548 | 126.44728 | 31 ft | 18 kts | 232° |
| 2026-05-04 02:27 | 37.44468 | 126.44594 | 31 ft | 16 kts | 236° |
| 2026-05-04 02:27 | 37.44424 | 126.44510 | 31 ft | 7 kts | 249° |
| 2026-05-04 02:27 | 37.44432 | 126.44451 | 31 ft | 8 kts | 314° |
| 2026-05-04 02:28 | 37.44455 | 126.44432 | 31 ft | 1 kts | 327° |
| 2026-05-04 02:28 | 37.44456 | 126.44431 | 31 ft | 0 kts | 327° |
| 2026-05-04 02:28 | 37.44468 | 126.44403 | 31 ft | 11 kts | 277° |
| 2026-05-04 02:29 | 37.44403 | 126.44298 | 31 ft | 21 kts | 223° |
| 2026-05-04 02:29 | 37.44318 | 126.44124 | 31 ft | 22 kts | 284° |
| 2026-05-04 02:29 | 37.44358 | 126.44080 | 31 ft | 4 kts | 2° |
| 2026-05-04 02:29 | 37.44425 | 126.44123 | 31 ft | 17 kts | 5° |
| 2026-05-04 02:30 | 37.44470 | 126.44098 | 31 ft | 0 kts | 323° |
| 2026-05-04 02:30 | 37.44527 | 126.44045 | 31 ft | 33 kts | 323° |
| 2026-05-04 02:30 | 37.44866 | 126.43731 | 31 ft | 86 kts | 324° |
| 2026-05-04 02:30 | 37.45484 | 126.43160 | 31 ft | 132 kts | 323° |
| 2026-05-04 02:31 | 37.46333 | 126.42377 | 207 ft | 165 kts | 324° |
| 2026-05-04 02:31 | 37.47269 | 126.41452 | 812 ft | 171 kts | 317° |
| 2026-05-04 02:31 | 37.48044 | 126.40397 | 1832 ft | 159 kts | 315° |
| 2026-05-04 02:31 | 37.48840 | 126.39370 | 2440 ft | 170 kts | 312° |
| 2026-05-04 02:32 | 37.49600 | 126.38194 | 3166 ft | 178 kts | 310° |
| 2026-05-04 02:32 | 37.50208 | 126.36740 | 3714 ft | 198 kts | 293° |
| 2026-05-04 02:32 | 37.50444 | 126.34930 | 4243 ft | 221 kts | 282° |
| 2026-05-04 02:32 | 37.50529 | 126.32903 | 4740 ft | 241 kts | 279° |
| 2026-05-04 02:33 | 37.50563 | 126.30787 | 5611 ft | 241 kts | 277° |
| 2026-05-04 02:33 | 37.50599 | 126.28647 | 6412 ft | 246 kts | 277° |
| 2026-05-04 02:33 | 37.50641 | 126.26495 | 7214 ft | 250 kts | 277° |
| 2026-05-04 02:33 | 37.50688 | 126.24290 | 8016 ft | 253 kts | 277° |
| 2026-05-04 02:34 | 37.50738 | 126.22052 | 8803 ft | 257 kts | 278° |
| 2026-05-04 02:34 | 37.50727 | 126.19782 | 9569 ft | 264 kts | 270° |
| 2026-05-04 02:34 | 37.50198 | 126.17513 | 10313 ft | 279 kts | 253° |
| 2026-05-04 02:34 | 37.49253 | 126.15346 | 10962 ft | 291 kts | 248° |
| 2026-05-04 02:35 | 37.48149 | 126.13107 | 11364 ft | 311 kts | 245° |
| 2026-05-04 02:35 | 37.46919 | 126.10765 | 11659 ft | 331 kts | 244° |
| 2026-05-04 02:35 | 37.45606 | 126.08270 | 11914 ft | 351 kts | 244° |
| 2026-05-04 02:35 | 37.44673 | 126.06497 | 12089 ft | 364 kts | 244° |
| 2026-05-04 02:36 | 37.43268 | 126.03827 | 12511 ft | 376 kts | 244° |
| 2026-05-04 02:36 | 37.42700 | 126.02740 | 12752 ft | 378 kts | 245° |
| 2026-05-04 02:36 | 37.42239 | 126.01780 | 12960 ft | 377 kts | 248° |
| 2026-05-04 02:36 | 37.41225 | 125.98775 | 13601 ft | 371 kts | 261° |
| 2026-05-04 02:37 | 37.40732 | 125.95610 | 14306 ft | 365 kts | 271° |
| 2026-05-04 02:37 | 37.40567 | 125.91392 | 15249 ft | 365 kts | 277° |
| 2026-05-04 02:37 | 37.40563 | 125.89227 | 15724 ft | 367 kts | 278° |
| 2026-05-04 02:37 | 37.40561 | 125.85997 | 16407 ft | 371 kts | 278° |
| 2026-05-04 02:38 | 37.40543 | 125.82765 | 17035 ft | 376 kts | 278° |
| 2026-05-04 02:38 | 37.40514 | 125.79463 | 17676 ft | 379 kts | 278° |
| 2026-05-04 02:38 | 37.40362 | 125.49170 | 20774 ft | 459 kts | 268° |
| 2026-05-04 02:38 | 37.38952 | 124.89823 | 27969 ft | 394 kts | 271° |
| 2026-05-04 02:39 | 37.35989 | 124.33823 | 29877 ft | 424 kts | 261° |
| 2026-05-04 02:39 | 37.27578 | 124.12675 | 29039 ft | 462 kts | 229° |
| 2026-05-04 02:39 | 37.07156 | 123.93572 | 27772 ft | 419 kts | 240° |
| 2026-05-04 02:39 | 36.97063 | 123.43215 | 28110 ft | 409 kts | 266° |
| 2026-05-04 02:40 | 36.83978 | 122.87271 | 28405 ft | 453 kts | 276° |
| 2026-05-04 02:40 | 37.05898 | 122.37798 | 28437 ft | 403 kts | 329° |
| 2026-05-04 02:40 | 37.35124 | 121.87016 | 27917 ft | 460 kts | 287° |
| 2026-05-04 02:40 | 37.32170 | 121.26063 | 28743 ft | 428 kts | 276° |
| 2026-05-04 02:41 | 37.56114 | 120.80563 | 28240 ft | 426 kts | 321° |
| 2026-05-04 02:41 | 37.87695 | 120.39494 | 27467 ft | 391 kts | 279° |
| 2026-05-04 02:41 | 37.85424 | 119.83595 | 27485 ft | 422 kts | 274° |
| 2026-05-04 02:41 | 38.08932 | 119.36823 | 27236 ft | 415 kts | 328° |
| 2026-05-04 02:42 | 38.46232 | 119.00813 | 27553 ft | 459 kts | 304° |
| 2026-05-04 02:42 | 38.48992 | 118.68634 | 27973 ft | 450 kts | 258° |
| 2026-05-04 02:42 | 38.42502 | 118.37510 | 27853 ft | 461 kts | 254° |
| 2026-05-04 02:42 | 38.47002 | 118.09407 | 25631 ft | 386 kts | 316° |
| 2026-05-04 02:43 | 38.56107 | 117.99821 | 22291 ft | 385 kts | 324° |
| 2026-05-04 02:43 | 38.64084 | 117.91437 | 19061 ft | 373 kts | 313° |
| 2026-05-04 02:43 | 38.68972 | 117.80183 | 18005 ft | 378 kts | 288° |
| 2026-05-04 02:43 | 38.71785 | 117.63888 | 13789 ft | 373 kts | 290° |
| 2026-05-04 02:44 | 38.81213 | 117.43053 | 9257 ft | 306 kts | 309° |
| 2026-05-04 02:44 | 38.85826 | 117.24104 | 7469 ft | 267 kts | 275° |
| 2026-05-04 02:44 | 38.90127 | 117.07524 | 5658 ft | 239 kts | 314° |
| 2026-05-04 02:44 | 38.98855 | 116.95209 | 4411 ft | 234 kts | 294° |
| 2026-05-04 02:45 | 38.99812 | 116.78690 | 4670 ft | 234 kts | 277° |
| 2026-05-04 02:45 | 39.04891 | 116.64982 | 5065 ft | 234 kts | 313° |
| 2026-05-04 02:45 | 39.09879 | 116.59491 | 4986 ft | 240 kts | 335° |
| 2026-05-04 02:45 | 39.16435 | 116.59318 | 4975 ft | 244 kts | 13° |
| 2026-05-04 02:46 | 39.23007 | 116.59243 | 4952 ft | 239 kts | 337° |
| 2026-05-04 02:46 | 39.26348 | 116.57165 | 4974 ft | 239 kts | 339° |
| 2026-05-04 02:46 | 39.29866 | 116.56130 | 4965 ft | 240 kts | 349° |
| 2026-05-04 02:46 | 39.30658 | 116.55967 | 4965 ft | 241 kts | 350° |
| 2026-05-04 02:47 | 39.42282 | 116.56721 | 4308 ft | 255 kts | 2° |
| 2026-05-04 02:47 | 39.53753 | 116.54156 | 3719 ft | 259 kts | 341° |
| 2026-05-04 02:47 | 39.55466 | 116.53531 | 3712 ft | 253 kts | 345° |
| 2026-05-04 02:47 | 39.58596 | 116.52865 | 3256 ft | 248 kts | 349° |
| 2026-05-04 02:48 | 39.65400 | 116.51843 | 2458 ft | 232 kts | 354° |
| 2026-05-04 02:48 | 39.71541 | 116.51008 | 1733 ft | 211 kts | 350° |
| 2026-05-04 02:48 | 39.76974 | 116.50127 | 1823 ft | 184 kts | 349° |
| 2026-05-04 02:48 | 39.81454 | 116.47865 | 1897 ft | 172 kts | 306° |
| 2026-05-04 02:49 | 39.81093 | 116.41994 | 1962 ft | 175 kts | 246° |
| 2026-05-04 02:49 | 39.79998 | 116.39175 | 1941 ft | 178 kts | 249° |
| 2026-05-04 02:49 | 39.79526 | 116.37408 | 1920 ft | 175 kts | 254° |
| 2026-05-04 02:49 | 39.76869 | 116.32471 | 1820 ft | 179 kts | 205° |
| 2026-05-04 02:50 | 39.71852 | 116.33252 | 2098 ft | 197 kts | 149° |
| 2026-05-04 02:50 | 39.70216 | 116.34855 | 2020 ft | 200 kts | 146° |
| 2026-05-04 02:50 | 39.68987 | 116.35613 | 1961 ft | 196 kts | 163° |
| 2026-05-04 02:50 | 39.67682 | 116.36038 | 1935 ft | 191 kts | 171° |
| 2026-05-04 02:51 | 39.66381 | 116.36335 | 1914 ft | 188 kts | 175° |
| 2026-05-04 02:51 | 39.65099 | 116.36582 | 1899 ft | 185 kts | 174° |
| 2026-05-04 02:51 | 39.63862 | 116.36855 | 1872 ft | 177 kts | 174° |
| 2026-05-04 02:51 | 39.62673 | 116.37126 | 1873 ft | 168 kts | 175° |
| 2026-05-04 02:52 | 39.61559 | 116.37335 | 1823 ft | 157 kts | 176° |
| 2026-05-04 02:52 | 39.60497 | 116.37528 | 1732 ft | 150 kts | 176° |
| 2026-05-04 02:52 | 39.59486 | 116.37682 | 1636 ft | 144 kts | 180° |
| 2026-05-04 02:52 | 39.58497 | 116.37770 | 1503 ft | 140 kts | 181° |
| 2026-05-04 02:53 | 39.57515 | 116.37841 | 1320 ft | 139 kts | 181° |
| 2026-05-04 02:53 | 39.56562 | 116.37932 | 1149 ft | 139 kts | 179° |
| 2026-05-04 02:53 | 39.55598 | 116.38089 | 938 ft | 141 kts | 175° |
| 2026-05-04 02:53 | 39.54609 | 116.38241 | 712 ft | 146 kts | 175° |
| 2026-05-04 02:54 | 39.53598 | 116.38395 | 514 ft | 146 kts | 173° |
| 2026-05-04 02:54 | 39.52595 | 116.38555 | 322 ft | 146 kts | 173° |
| 2026-05-04 02:54 | 39.51614 | 116.38725 | 158 ft | 137 kts | 173° |
| 2026-05-04 02:54 | 39.50750 | 116.38861 | 92 ft | 106 kts | 174° |
| 2026-05-04 02:55 | 39.52716 | 116.38536 | 345 ft | 146 kts | 173° |
| 2026-05-04 02:55 | 39.51728 | 116.38706 | 173 ft | 138 kts | 172° |
| 2026-05-04 02:55 | 39.50844 | 116.38847 | 92 ft | 113 kts | 174° |
| 2026-05-04 02:56 | 39.50151 | 116.38950 | 91 ft | 42 kts | 172° |
| 2026-05-04 02:56 | 39.49953 | 116.39064 | 91 ft | 20 kts | 145° |
| 2026-05-04 02:56 | 39.49920 | 116.39092 | 91 ft | 17 kts | 149° |